createdAt,value
2023-03-17T00:01:23.511Z,56.90
2023-03-17T00:03:50.388Z,56.00
2023-03-17T00:06:24.609Z,56.00
2023-03-17T00:08:51.516Z,57.50
2023-03-17T00:11:18.303Z,56.20
2023-03-17T00:13:46.226Z,56.30
2023-03-17T00:16:17.826Z,56.70
2023-03-17T00:18:45.644Z,58.40
2023-03-17T00:21:19.570Z,56.60
2023-03-17T00:23:50.660Z,58.50
2023-03-17T00:26:18.047Z,58.20
2023-03-17T00:28:45.358Z,56.60
2023-03-17T00:31:24.360Z,56.30
2023-03-17T00:33:54.666Z,58.70
2023-03-17T00:36:30.784Z,57.40
2023-03-17T00:38:58.939Z,58.20
2023-03-17T00:41:27.011Z,57.20
2023-03-17T00:43:54.054Z,57.10
2023-03-17T00:46:28.715Z,56.50
2023-03-17T00:48:57.851Z,57.90
2023-03-17T00:51:24.607Z,56.50
2023-03-17T00:53:51.757Z,56.30
2023-03-17T00:56:21.086Z,56.50
2023-03-17T00:58:48.920Z,57.50
2023-03-17T01:01:16.160Z,57.40
2023-03-17T01:03:43.074Z,56.80
2023-03-17T01:06:12.932Z,56.50
2023-03-17T01:08:41.565Z,58.30
2023-03-17T01:11:19.452Z,57.80
2023-03-17T01:13:47.799Z,59.20
2023-03-17T01:16:15.748Z,57.70
2023-03-17T01:18:43.512Z,57.20
2023-03-17T01:21:10.440Z,57.60
2023-03-17T01:23:37.870Z,57.10
2023-03-17T01:26:05.580Z,57.20
2023-03-17T01:28:32.571Z,57.30
2023-03-17T01:30:59.739Z,57.20
2023-03-17T01:33:26.682Z,57.20
2023-03-17T01:35:53.523Z,57.60
2023-03-17T01:38:20.431Z,57.20
2023-03-17T01:40:50.356Z,57.20
2023-03-17T01:43:18.888Z,58.60
2023-03-17T01:46:22.800Z,57.20
2023-03-17T01:49:12.682Z,59.40
2023-03-17T01:51:58.862Z,59.90
2023-03-17T01:54:37.687Z,56.60
2023-03-17T01:57:23.272Z,58.70
2023-03-17T01:59:55.337Z,60.00
2023-03-17T02:02:28.641Z,59.10
2023-03-17T02:04:55.730Z,59.00
2023-03-17T02:07:23.828Z,57.50
2023-03-17T02:09:52.457Z,58.60
2023-03-17T02:12:22.555Z,58.10
2023-03-17T02:14:49.972Z,58.80
2023-03-17T02:17:16.890Z,57.80
2023-03-17T02:19:43.769Z,57.50
2023-03-17T02:22:11.485Z,57.70
2023-03-17T02:24:43.261Z,58.40
2023-03-17T02:27:18.803Z,59.30
2023-03-17T02:29:46.430Z,58.90
2023-03-17T02:32:18.368Z,59.40
2023-03-17T02:34:46.428Z,59.60
2023-03-17T02:37:13.775Z,58.30
2023-03-17T02:39:40.915Z,58.10
2023-03-17T02:42:08.252Z,57.50
2023-03-17T02:44:35.182Z,57.70
2023-03-17T02:47:03.138Z,57.60
2023-03-17T02:49:31.503Z,57.50
2023-03-17T02:51:58.267Z,58.50
2023-03-17T02:54:25.093Z,57.70
2023-03-17T02:56:51.831Z,57.50
2023-03-17T02:59:18.628Z,57.30
2023-03-17T03:01:48.297Z,57.40
2023-03-17T03:04:15.200Z,57.40
2023-03-17T03:06:42.586Z,57.30
2023-03-17T03:09:11.673Z,57.10
2023-03-17T03:11:39.298Z,57.80
2023-03-17T03:14:06.876Z,57.60
2023-03-17T03:16:33.879Z,57.50
2023-03-17T03:19:01.520Z,56.90
2023-03-17T03:21:28.624Z,57.40
2023-03-17T03:23:55.735Z,57.60
2023-03-17T03:26:22.862Z,56.70
2023-03-17T03:28:50.039Z,56.90
2023-03-17T03:31:17.298Z,57.30
2023-03-17T03:33:45.532Z,57.10
2023-03-17T03:36:13.394Z,57.60
2023-03-17T03:38:41.550Z,56.50
2023-03-17T03:41:08.804Z,56.30
2023-03-17T03:43:36.194Z,56.70
2023-03-17T03:46:03.831Z,57.00
2023-03-17T03:48:30.834Z,57.00
2023-03-17T03:50:59.430Z,56.50
2023-03-17T03:53:26.654Z,57.40
2023-03-17T03:55:54.469Z,56.20
2023-03-17T03:58:22.172Z,56.80
2023-03-17T04:00:49.117Z,56.80
2023-03-17T04:03:16.522Z,56.10
2023-03-17T04:05:43.413Z,56.30
2023-03-17T04:08:11.322Z,56.30
2023-03-17T04:10:38.281Z,56.20
2023-03-17T04:13:05.065Z,56.50
2023-03-17T04:15:31.801Z,56.10
2023-03-17T04:17:58.504Z,56.00
2023-03-17T04:20:25.440Z,56.00
2023-03-17T04:22:52.374Z,56.10
2023-03-17T04:25:19.346Z,55.90
2023-03-17T04:27:46.048Z,56.00
2023-03-17T04:30:14.453Z,55.90
2023-03-17T04:32:41.726Z,57.00
2023-03-17T04:35:17.936Z,56.10
2023-03-17T04:37:44.963Z,57.10
2023-03-17T04:40:13.280Z,56.20
2023-03-17T04:42:46.795Z,57.00
2023-03-17T04:45:17.218Z,57.10
2023-03-17T04:47:46.221Z,55.90
2023-03-17T04:50:14.269Z,56.20
2023-03-17T04:52:41.156Z,56.70
2023-03-17T04:55:08.482Z,56.00
2023-03-17T04:57:36.640Z,56.20
2023-03-17T05:00:05.514Z,56.50
2023-03-17T05:02:32.415Z,57.00
2023-03-17T05:04:59.191Z,55.70
2023-03-17T05:07:25.936Z,55.60
2023-03-17T05:09:52.662Z,55.50
2023-03-17T05:12:19.452Z,55.30
2023-03-17T05:14:46.567Z,55.30
2023-03-17T05:17:13.775Z,55.40
2023-03-17T05:19:40.736Z,55.50
2023-03-17T05:22:07.533Z,55.50
2023-03-17T05:24:34.324Z,55.70
2023-03-17T05:27:01.093Z,55.10
2023-03-17T05:29:27.930Z,55.10
2023-03-17T05:31:54.663Z,55.20
2023-03-17T05:34:21.482Z,55.00
2023-03-17T05:36:48.744Z,55.10
2023-03-17T05:39:15.443Z,55.00
2023-03-17T05:41:42.307Z,55.00
2023-03-17T05:44:09.215Z,55.10
2023-03-17T05:46:36.315Z,55.20
2023-03-17T05:49:03.634Z,55.20
2023-03-17T05:51:30.409Z,55.30
2023-03-17T05:53:57.547Z,55.20
2023-03-17T05:56:26.256Z,55.10
2023-03-17T05:58:52.945Z,55.20
2023-03-17T06:01:19.777Z,55.30
2023-03-17T06:03:46.730Z,55.20
2023-03-17T06:06:13.416Z,55.20
2023-03-17T06:08:40.468Z,55.40
2023-03-17T06:11:07.256Z,55.50
2023-03-17T06:13:34.060Z,55.40
2023-03-17T06:16:00.840Z,55.30
2023-03-17T06:18:27.617Z,55.40
2023-03-17T06:20:54.588Z,55.40
2023-03-17T06:23:23.561Z,55.50
2023-03-17T06:25:50.740Z,55.50
2023-03-17T06:28:18.348Z,55.50
2023-03-17T06:30:45.642Z,55.60
2023-03-17T06:33:13.101Z,55.50
2023-03-17T06:35:39.958Z,55.80
2023-03-17T06:38:07.259Z,55.50
2023-03-17T06:40:34.132Z,55.80
2023-03-17T06:43:01.918Z,55.30
2023-03-17T06:45:29.164Z,56.30
2023-03-17T06:47:56.199Z,55.70
2023-03-17T06:50:23.032Z,55.30
2023-03-17T06:52:49.871Z,55.30
2023-03-17T06:55:17.427Z,55.20
2023-03-17T06:57:44.391Z,55.80
2023-03-17T07:00:14.095Z,55.70
2023-03-17T07:02:41.194Z,55.20
2023-03-17T07:05:08.280Z,54.70
2023-03-17T07:07:38.802Z,55.10
2023-03-17T07:10:06.307Z,54.60
2023-03-17T07:12:33.168Z,55.10
2023-03-17T07:15:00.084Z,54.70
2023-03-17T07:17:27.069Z,54.70
2023-03-17T07:19:53.772Z,55.60
2023-03-17T07:22:20.922Z,54.50
2023-03-17T07:24:49.154Z,54.70
2023-03-17T07:27:16.905Z,54.40
2023-03-17T07:29:43.799Z,54.90
2023-03-17T07:32:11.246Z,55.00
2023-03-17T07:34:38.056Z,54.70
2023-03-17T07:37:06.956Z,54.10
2023-03-17T07:39:33.936Z,54.40
2023-03-17T07:42:00.646Z,53.90
2023-03-17T07:44:27.790Z,54.60
2023-03-17T07:46:55.227Z,53.40
2023-03-17T07:49:38.203Z,54.00
2023-03-17T07:52:08.326Z,53.10
2023-03-17T07:54:36.259Z,53.50
2023-03-17T07:57:04.130Z,53.40
2023-03-17T07:59:31.597Z,53.30
2023-03-17T08:02:00.192Z,53.30
2023-03-17T08:04:27.653Z,53.40
2023-03-17T08:06:54.589Z,53.10
2023-03-17T08:09:24.686Z,53.00
2023-03-17T08:11:51.576Z,53.30
2023-03-17T08:14:18.725Z,53.20
2023-03-17T08:16:45.616Z,52.60
2023-03-17T08:19:12.460Z,52.40
2023-03-17T08:21:39.259Z,52.10
2023-03-17T08:24:06.551Z,51.80
2023-03-17T08:26:34.102Z,52.10
2023-03-17T08:29:01.415Z,52.70
2023-03-17T08:31:28.442Z,51.80
2023-03-17T08:33:57.039Z,51.60
2023-03-17T08:36:24.148Z,51.70
2023-03-17T08:38:51.063Z,51.60
2023-03-17T08:41:21.745Z,52.60
2023-03-17T08:43:48.766Z,52.80
2023-03-17T08:46:23.271Z,51.60
2023-03-17T08:48:51.511Z,50.40
2023-03-17T08:51:22.841Z,51.80
2023-03-17T08:53:51.766Z,51.70
2023-03-17T08:56:18.486Z,51.20
2023-03-17T08:58:45.839Z,51.30
2023-03-17T09:01:12.798Z,50.10
2023-03-17T09:03:40.787Z,50.10
2023-03-17T09:06:11.521Z,50.20
2023-03-17T09:08:41.189Z,50.90
2023-03-17T09:11:09.700Z,50.70
2023-03-17T09:13:39.040Z,50.00
2023-03-17T09:16:08.810Z,50.20
2023-03-17T09:18:35.782Z,50.10
2023-03-17T09:21:03.657Z,49.20
2023-03-17T09:23:30.977Z,48.90
2023-03-17T09:25:57.857Z,49.20
2023-03-17T09:28:24.852Z,48.60
2023-03-17T09:30:52.792Z,49.00
2023-03-17T09:33:19.680Z,49.00
2023-03-17T09:35:46.669Z,48.40
2023-03-17T09:38:13.730Z,48.30
2023-03-17T09:40:45.908Z,48.60
2023-03-17T09:43:34.878Z,50.40
2023-03-17T09:46:15.260Z,49.90
2023-03-17T09:48:53.519Z,50.50
2023-03-17T09:51:20.459Z,50.50
2023-03-17T09:54:02.355Z,48.70
2023-03-17T09:56:32.513Z,47.90
2023-03-17T09:59:07.142Z,50.10
2023-03-17T10:01:34.362Z,47.50
2023-03-17T10:04:02.581Z,48.40
2023-03-17T10:06:49.583Z,48.60
2023-03-17T10:09:35.328Z,49.90
2023-03-17T10:12:29.785Z,48.60
2023-03-17T10:15:00.969Z,49.80
2023-03-17T10:17:40.433Z,47.90
2023-03-17T10:20:14.463Z,49.70
2023-03-17T10:22:48.309Z,49.00
2023-03-17T10:25:18.930Z,49.50
2023-03-17T10:27:54.756Z,49.50
2023-03-17T10:30:23.459Z,49.80
2023-03-17T10:32:51.835Z,49.50
2023-03-17T10:35:19.172Z,48.60
2023-03-17T10:37:49.091Z,48.50
2023-03-17T10:40:28.519Z,49.30
2023-03-17T10:43:02.397Z,48.50
2023-03-17T10:45:32.397Z,49.00
2023-03-17T10:48:01.212Z,47.80
2023-03-17T10:50:32.542Z,47.50
2023-03-17T10:53:03.896Z,47.80
2023-03-17T10:55:39.535Z,47.10
2023-03-17T10:58:21.775Z,48.50
2023-03-17T11:01:05.659Z,48.60
2023-03-17T11:03:38.743Z,46.10
2023-03-17T11:06:12.009Z,46.50
2023-03-17T11:09:04.776Z,46.40
2023-03-17T11:11:34.778Z,46.60
2023-03-17T11:14:06.800Z,45.70
2023-03-17T11:16:38.210Z,46.10
2023-03-17T11:19:14.136Z,46.00
2023-03-17T11:22:04.887Z,46.10
2023-03-17T11:24:36.349Z,46.00
2023-03-17T11:27:13.032Z,45.60
2023-03-17T11:29:54.354Z,45.70
2023-03-17T11:32:37.128Z,44.20
2023-03-17T11:35:23.138Z,45.60
2023-03-17T11:38:21.058Z,44.20
2023-03-17T11:40:54.087Z,45.60
2023-03-17T11:43:33.570Z,44.30
2023-03-17T11:46:40.102Z,46.20
2023-03-17T11:49:24.138Z,45.40
2023-03-17T11:52:21.950Z,44.90
2023-03-17T11:55:04.418Z,44.30
2023-03-17T11:57:41.080Z,44.70
2023-03-17T12:00:16.611Z,44.70
2023-03-17T12:02:56.345Z,44.90
2023-03-17T12:05:28.674Z,45.30
2023-03-17T12:08:04.443Z,44.30
2023-03-17T12:10:40.586Z,45.20
2023-03-17T12:13:23.560Z,44.90
2023-03-17T12:16:00.148Z,44.20
2023-03-17T12:18:32.677Z,44.80
2023-03-17T12:21:45.580Z,44.60
2023-03-17T12:24:23.868Z,44.70
2023-03-17T12:27:05.883Z,44.30
2023-03-17T12:29:43.112Z,44.80
2023-03-17T12:32:35.693Z,44.50
2023-03-17T12:35:26.147Z,44.00
2023-03-17T12:37:54.196Z,44.30
2023-03-17T12:40:33.692Z,43.50
2023-03-17T12:43:36.348Z,44.20
2023-03-17T12:46:29.121Z,44.70
2023-03-17T12:49:11.706Z,43.90
2023-03-17T12:51:49.980Z,44.40
2023-03-17T12:54:35.800Z,44.80
2023-03-17T12:57:05.061Z,44.50
2023-03-17T12:59:33.947Z,44.00
2023-03-17T13:02:23.156Z,43.70
2023-03-17T13:05:00.937Z,44.30
2023-03-17T13:07:38.431Z,44.40
2023-03-17T13:10:19.151Z,44.30
2023-03-17T13:12:48.743Z,44.50
2023-03-17T13:15:33.978Z,44.70
2023-03-17T13:18:15.503Z,44.70
2023-03-17T13:20:56.459Z,45.20
2023-03-17T13:23:57.799Z,44.30
2023-03-17T13:26:54.918Z,44.50
2023-03-17T13:29:26.837Z,44.90
2023-03-17T13:32:13.535Z,45.40
2023-03-17T13:34:50.076Z,45.50
2023-03-17T13:37:25.519Z,45.70
2023-03-17T13:40:10.685Z,45.80
2023-03-17T13:42:46.714Z,45.30
2023-03-17T13:45:39.438Z,45.90
2023-03-17T13:48:29.628Z,45.40
2023-03-17T13:51:13.915Z,45.80
2023-03-17T13:54:09.295Z,45.40
2023-03-17T13:56:41.949Z,45.20
2023-03-17T13:59:20.171Z,45.20
2023-03-17T14:01:59.817Z,44.80
2023-03-17T14:04:30.752Z,44.90
2023-03-17T14:07:05.309Z,45.30
2023-03-17T14:09:38.715Z,45.10
2023-03-17T14:12:45.007Z,44.40
2023-03-17T14:15:49.507Z,44.90
2023-03-17T14:18:19.017Z,45.00
2023-03-17T14:20:58.081Z,44.30
2023-03-17T14:23:25.884Z,45.00
2023-03-17T14:25:56.424Z,44.80
2023-03-17T14:28:27.264Z,45.60
2023-03-17T14:31:08.038Z,44.60
2023-03-17T14:33:41.713Z,44.90
2023-03-17T14:36:14.143Z,45.10
2023-03-17T14:38:51.582Z,44.40
2023-03-17T14:41:19.876Z,44.60
2023-03-17T14:43:47.306Z,44.30
2023-03-17T14:46:26.405Z,44.50
2023-03-17T14:49:21.238Z,44.70
2023-03-17T14:51:53.312Z,44.60
2023-03-17T14:54:24.641Z,44.00
2023-03-17T14:57:01.918Z,43.80
2023-03-17T14:59:37.542Z,43.60
2023-03-17T15:02:17.632Z,43.90
2023-03-17T15:04:54.247Z,43.90
2023-03-17T15:07:32.203Z,43.60
2023-03-17T15:10:03.040Z,43.40
2023-03-17T15:12:31.106Z,43.40
2023-03-17T15:15:03.544Z,43.00
2023-03-17T15:17:36.660Z,43.40
2023-03-17T15:20:16.219Z,43.70
2023-03-17T15:23:00.877Z,43.70
2023-03-17T15:25:38.224Z,43.70
2023-03-17T15:28:26.502Z,44.00
2023-03-17T15:30:56.651Z,43.80
2023-03-17T15:33:29.570Z,43.50
2023-03-17T15:35:56.891Z,43.10
2023-03-17T15:38:23.834Z,43.40
2023-03-17T15:40:50.583Z,43.00
2023-03-17T15:43:18.762Z,42.60
2023-03-17T15:45:46.376Z,43.00
2023-03-17T15:48:23.940Z,43.00
2023-03-17T15:50:51.575Z,43.30
2023-03-17T15:53:18.932Z,43.50
2023-03-17T15:55:46.093Z,43.50
2023-03-17T15:58:13.055Z,43.80
2023-03-17T16:00:40.853Z,43.80
2023-03-17T16:03:25.534Z,44.30
2023-03-17T16:05:52.291Z,44.50
2023-03-17T16:08:19.444Z,44.20
2023-03-17T16:10:46.912Z,44.30
2023-03-17T16:13:13.801Z,44.70
2023-03-17T16:18:38.146Z,45.00
2023-03-17T16:21:05.345Z,46.20
2023-03-17T16:23:35.386Z,44.90
2023-03-17T16:26:14.236Z,45.40
2023-03-17T16:28:44.431Z,45.20
2023-03-17T16:31:37.524Z,45.70
2023-03-17T16:34:18.433Z,46.50
2023-03-17T16:36:45.253Z,46.30
2023-03-17T16:39:20.096Z,45.90
2023-03-17T16:41:48.288Z,46.70
2023-03-17T16:44:20.384Z,47.30
2023-03-17T16:46:47.768Z,47.70
2023-03-17T16:49:20.758Z,47.70
2023-03-17T16:51:49.426Z,49.00
2023-03-17T16:54:17.157Z,48.40
2023-03-17T16:56:44.410Z,48.50
2023-03-17T16:59:18.739Z,48.60
2023-03-17T17:01:45.600Z,50.00
2023-03-17T17:04:12.342Z,49.00
2023-03-17T17:06:39.121Z,49.10
2023-03-17T17:09:06.031Z,49.40
2023-03-17T17:11:32.677Z,49.40
2023-03-17T17:13:59.916Z,49.60
2023-03-17T17:16:35.329Z,49.90
2023-03-17T17:19:03.891Z,51.00
2023-03-17T17:21:31.968Z,51.10
2023-03-17T17:23:58.738Z,50.80
2023-03-17T17:26:25.580Z,51.10
2023-03-17T17:28:52.537Z,51.60
2023-03-17T17:31:19.495Z,52.30
2023-03-17T17:33:46.282Z,52.50
2023-03-17T17:36:15.705Z,52.60
2023-03-17T17:38:43.621Z,53.50
2023-03-17T17:41:11.610Z,53.00
2023-03-17T17:43:38.412Z,53.40
2023-03-17T17:46:11.701Z,53.20
2023-03-17T17:48:38.422Z,54.40
2023-03-17T17:51:05.386Z,53.30
2023-03-17T17:53:32.107Z,53.50
2023-03-17T17:55:58.894Z,53.40
2023-03-17T17:58:26.580Z,53.50
2023-03-17T18:00:55.283Z,53.80
2023-03-17T18:03:25.034Z,54.30
2023-03-17T18:05:53.946Z,53.60
2023-03-17T18:08:21.011Z,54.20
2023-03-17T18:10:49.229Z,53.90
2023-03-17T18:13:17.510Z,54.00
2023-03-17T18:15:44.395Z,54.40
2023-03-17T18:18:11.147Z,54.90
2023-03-17T18:20:38.632Z,54.40
2023-03-17T18:23:05.632Z,55.20
2023-03-17T18:25:32.279Z,54.70
2023-03-17T18:28:01.205Z,54.70
2023-03-17T18:30:31.486Z,54.90
2023-03-17T18:33:06.354Z,56.20
2023-03-17T18:35:33.205Z,56.30
2023-03-17T18:38:00.198Z,55.00
2023-03-17T18:40:27.409Z,55.60
2023-03-17T18:42:54.962Z,55.20
2023-03-17T18:45:21.722Z,55.90
2023-03-17T18:47:48.424Z,55.20
2023-03-17T18:50:16.553Z,55.20
2023-03-17T18:52:44.789Z,56.00
2023-03-17T18:55:12.768Z,56.30
2023-03-17T18:57:39.799Z,56.20
2023-03-17T19:00:08.584Z,55.70
2023-03-17T19:02:37.100Z,56.20
2023-03-17T19:05:04.963Z,56.00
2023-03-17T19:07:32.082Z,55.70
2023-03-17T19:09:59.443Z,55.20
2023-03-17T19:12:26.593Z,55.30
2023-03-17T19:14:53.372Z,55.20
2023-03-17T19:17:20.142Z,55.40
2023-03-17T19:19:46.861Z,55.20
2023-03-17T19:22:13.995Z,55.30
2023-03-17T19:24:41.115Z,55.00
2023-03-17T19:27:08.073Z,55.10
2023-03-17T19:29:34.821Z,56.20
2023-03-17T19:32:02.295Z,55.00
2023-03-17T19:34:29.164Z,55.50
2023-03-17T19:36:55.999Z,55.00
2023-03-17T19:39:22.869Z,55.30
2023-03-17T19:41:53.130Z,54.70
2023-03-17T19:44:19.824Z,54.70
2023-03-17T19:46:46.550Z,54.50
2023-03-17T19:49:13.407Z,54.30
2023-03-17T19:51:41.777Z,54.20
2023-03-17T19:54:09.832Z,54.30
2023-03-17T19:56:38.362Z,54.80
2023-03-17T19:59:06.576Z,54.20
2023-03-17T20:01:33.489Z,54.60
2023-03-17T20:04:00.402Z,54.40
2023-03-17T20:06:27.234Z,53.70
2023-03-17T20:08:54.121Z,53.70
2023-03-17T20:11:20.979Z,53.60
2023-03-17T20:13:47.712Z,53.30
2023-03-17T20:16:14.463Z,53.40
2023-03-17T20:18:41.223Z,53.50
2023-03-17T20:21:12.671Z,53.30
2023-03-17T20:23:39.480Z,54.80
2023-03-17T20:26:07.317Z,53.40
2023-03-17T20:28:34.518Z,53.10
2023-03-17T20:31:04.346Z,53.30
2023-03-17T20:33:34.228Z,53.30
2023-03-17T20:36:03.070Z,54.30
2023-03-17T20:38:33.085Z,53.20
2023-03-17T20:41:14.476Z,52.90
2023-03-17T20:43:41.778Z,53.80
2023-03-17T20:46:13.615Z,52.70
2023-03-17T20:48:40.801Z,53.20
2023-03-17T20:51:09.924Z,52.40
2023-03-17T20:53:36.685Z,52.40
2023-03-17T20:56:04.704Z,52.70
2023-03-17T20:58:31.391Z,52.20
2023-03-17T21:00:58.399Z,52.60
2023-03-17T21:03:25.305Z,52.60
2023-03-17T21:05:53.406Z,52.80
2023-03-17T21:08:20.074Z,52.90
2023-03-17T21:10:46.841Z,53.10
2023-03-17T21:13:13.637Z,53.00
2023-03-17T21:15:41.053Z,53.00
2023-03-17T21:18:07.994Z,53.00
2023-03-17T21:20:34.718Z,53.20
2023-03-17T21:23:04.407Z,53.40
2023-03-17T21:25:31.188Z,53.40
2023-03-17T21:27:58.061Z,53.50
2023-03-17T21:30:24.870Z,53.40
2023-03-17T21:32:51.702Z,53.60
2023-03-17T21:35:18.540Z,53.50
2023-03-17T21:37:45.298Z,53.70
2023-03-17T21:40:13.666Z,54.40
2023-03-17T21:42:40.715Z,54.50
2023-03-17T21:45:07.619Z,53.70
2023-03-17T21:47:36.249Z,53.90
2023-03-17T21:50:05.112Z,53.70
2023-03-17T21:52:32.067Z,54.50
2023-03-17T21:54:59.527Z,53.90
2023-03-17T21:57:27.669Z,54.20
2023-03-17T21:59:54.509Z,54.00
2023-03-17T22:02:21.353Z,54.00
2023-03-17T22:04:48.671Z,54.00
2023-03-17T22:07:18.899Z,54.00
2023-03-17T22:09:45.647Z,54.30
2023-03-17T22:12:12.472Z,54.00
2023-03-17T22:14:39.226Z,54.00
2023-03-17T22:17:05.946Z,54.00
2023-03-17T22:19:32.819Z,54.20
2023-03-17T22:21:59.651Z,54.40
2023-03-17T22:24:26.533Z,54.40
2023-03-17T22:26:53.366Z,55.10
2023-03-17T22:29:20.054Z,54.60
2023-03-17T22:31:47.114Z,54.70
2023-03-17T22:34:14.102Z,54.80
2023-03-17T22:36:41.501Z,54.90
2023-03-17T22:39:11.767Z,54.90
2023-03-17T22:41:39.101Z,55.20
2023-03-17T22:44:08.347Z,55.20
2023-03-17T22:46:36.824Z,56.10
2023-03-17T22:49:04.730Z,55.70
2023-03-17T22:51:31.636Z,55.60
2023-03-17T22:53:58.336Z,55.40
2023-03-17T22:56:26.090Z,55.30
2023-03-17T22:58:54.100Z,55.40
2023-03-17T23:01:23.851Z,56.20
2023-03-17T23:03:50.798Z,56.10
2023-03-17T23:06:19.394Z,55.50
2023-03-17T23:08:46.693Z,56.10
2023-03-17T23:11:23.104Z,56.40
2023-03-17T23:13:51.280Z,57.10
2023-03-17T23:16:18.794Z,56.50
2023-03-17T23:18:46.962Z,56.10
2023-03-17T23:21:31.712Z,56.10
2023-03-17T23:23:59.598Z,57.40
2023-03-17T23:26:26.805Z,56.50
2023-03-17T23:28:53.697Z,56.90
2023-03-17T23:31:22.230Z,56.70
2023-03-17T23:33:50.433Z,56.80
2023-03-17T23:36:18.077Z,57.60
2023-03-17T23:38:45.830Z,57.50
2023-03-17T23:41:13.386Z,57.70
2023-03-17T23:43:40.270Z,57.90
2023-03-17T23:46:07.020Z,57.50
2023-03-17T23:48:33.859Z,57.60
2023-03-17T23:51:00.998Z,57.80
2023-03-17T23:53:28.447Z,58.00
2023-03-17T23:55:55.213Z,58.10
2023-03-17T23:58:22.826Z,58.30
